Flight Track Log - Related Links

Times and Time Zones

All times are in EDT time to prevent confusion due to time zone crossing. See the N273SK flight status page for this flight to view local times or setup timezone preferences in your user account.

Time Position Orientation Groundspeed Altitude Reporting Facility
EDT Latitude Longitude Course Direction KTS MPH feet Rate Location/Type
Tue 05:48:22 PM 37.5214 -77.4039 250° West 154 177 3,600  Level Washington Center
Tue 05:49:22 PM 37.4767 -77.4681 229° Southwest 174 200 6,300 2,550 Climbing Washington Center
Tue 05:50:00 PM 37.3760 -77.8498 254° West  Level FlightAware Approximate
Tue 05:50:22 PM 37.4419 -77.5431 240° Southwest 224 258 8,700  Level Washington Center
Tue 05:51:00 PM 37.3500 -77.9850 270° West  Level FlightAware Approximate
Tue 05:51:22 PM 37.4258 -77.6342 257° West 248 285 11,000  Level Washington Center
Tue 05:52:00 PM 37.3231 -78.1191 250° West  Level FlightAware Approximate
Tue 05:52:22 PM 37.4075 -77.7281 256° West 269 310 13,200  Level Washington Center
Tue 05:53:00 PM 37.2856 -78.2505 250° West  Level FlightAware Approximate
Tue 05:53:22 PM 37.3892 -77.8242 257° West 283 326 15,200  Level Washington Center
Tue 05:54:22 PM 37.3706 -77.9281 257° West 294 338 16,900 1,550 Climbing Washington Center
Tue 05:55:22 PM 37.3475 -78.0292 254° West 300 345 18,300 1,500 Climbing Washington Center
Tue 05:56:22 PM 37.3264 -78.1408 257° West 313 360 19,900 850 Climbing Washington Center
Tue 05:57:22 PM 37.2986 -78.2706 255° West 340 391 20,000 50 Climbing Washington Center
Tue 05:58:22 PM 37.3253 -78.3864 286° West 343 395 20,000 550 Level Washington Center
Tue 05:59:22 PM 37.3903 -78.4594 318° Northwest 340 391 21,100 1,000 Climbing Washington Center
Tue 06:00:22 PM 37.4569 -78.5456 314° West 340 391 22,000 450 Climbing Washington Center
Tue 06:01:22 PM 37.5239 -78.6267 316° Northwest 334 384 22,000  Level Washington Center
Tue 06:02:22 PM 37.5925 -78.7133 315° West 329 379 22,000  Level Washington Center
Tue 06:03:22 PM 37.6569 -78.7947 315° West 329 379 22,000  Level Washington Center
Tue 06:04:22 PM 37.7217 -78.8761 315° West 329 379 22,000  Level Washington Center
Tue 06:05:22 PM 37.7881 -78.9606 315° West 329 379 22,000  Level Washington Center
Tue 06:06:22 PM 37.8486 -79.0369 315° West 329 379 22,000  Level Washington Center
Tue 06:07:22 PM 37.9083 -79.1292 309° West 329 379 22,000  Level Washington Center
Tue 06:08:22 PM 37.9447 -79.2414 292° West 334 384 22,000  Level Washington Center
Tue 06:09:22 PM 37.9825 -79.3672 291° West 346 398 22,000  Level Washington Center
Tue 06:10:22 PM 38.0164 -79.4847 290° West 351 404 22,000  Level Washington Center
Tue 06:11:22 PM 38.0522 -79.6000 292° West 356 410 22,000  Level Washington Center
Tue 06:12:22 PM 38.0839 -79.7047 291° West 356 410 22,000  Level Washington Center
Tue 06:13:22 PM 38.1194 -79.8228 291° West 356 410 22,000  Level Washington Center
Tue 06:14:22 PM 38.1531 -79.9381 290° West 356 410 22,000  Level Washington Center
Tue 06:15:22 PM 38.1900 -80.0644 290° West 356 410 22,000  Level Washington Center
Tue 06:16:22 PM 38.2253 -80.1831 291° West 356 410 22,000 -536 Level Washington Center
Tue 06:18:10 PM 38.2878 -80.3919 291° West 361 415 20,500 -706 Descending Indianapolis Center
Tue 06:19:12 PM 38.3228 -80.5106 291° West 361 415 20,000 -242 Descending Indianapolis Center
Tue 06:20:14 PM 38.3553 -80.6225 290° West 340 391 20,000  Level Indianapolis Center
Tue 06:21:16 PM 38.3839 -80.7375 288° West 339 390 20,000  Level Indianapolis Center
Tue 06:22:18 PM 38.3833 -80.8589 270° West 340 391 20,000  Level Indianapolis Center
Tue 06:23:20 PM 38.3831 -80.9778 270° West 337 388 20,000  Level Indianapolis Center
Tue 06:24:22 PM 38.3842 -81.0978 271° West 337 388 20,000  Level Indianapolis Center
Tue 06:25:24 PM 38.3833 -81.2431 270° West 338 389 20,000  Level Indianapolis Center
Tue 06:26:26 PM 38.3839 -81.3633 270° West 338 389 20,000  Level Indianapolis Center
Tue 06:27:28 PM 38.3847 -81.4833 271° West 336 387 20,000  Level Indianapolis Center
Tue 06:28:30 PM 38.3850 -81.6033 270° West 336 387 20,000  Level Indianapolis Center
Tue 06:29:32 PM 38.3847 -81.7222 270° West 333 383 20,000  Level Indianapolis Center
Tue 06:30:34 PM 38.3839 -81.8394 270° West 331 381 20,000  Level Indianapolis Center
Tue 06:31:36 PM 38.3836 -81.9569 270° West 329 379 20,000  Level Indianapolis Center
Tue 06:32:38 PM 38.3822 -82.0719 269° West 326 375 20,000  Level Indianapolis Center
Tue 06:33:40 PM 38.3819 -82.2083 270° West 318 366 20,000  Level Indianapolis Center
Tue 06:34:42 PM 38.3856 -82.3222 272° West 322 371 20,000  Level Indianapolis Center
Tue 06:35:44 PM 38.4036 -82.4356 282° West 325 374 20,000  Level Indianapolis Center
Tue 06:36:46 PM 38.4214 -82.5564 281° West 323 372 20,000  Level Indianapolis Center
Tue 06:37:48 PM 38.4378 -82.6731 280° West 333 383 20,000  Level Indianapolis Center
Tue 06:38:50 PM 38.4561 -82.7983 281° West 356 410 20,000  Level Indianapolis Center
Tue 06:39:52 PM 38.4747 -82.9233 281° West 358 412 20,000  Level Indianapolis Center
Tue 06:40:54 PM 38.4925 -83.0469 280° West 356 410 20,000  Level Indianapolis Center
Tue 06:41:56 PM 38.5128 -83.1897 280° West 353 406 20,000  Level Indianapolis Center
Tue 06:42:58 PM 38.5300 -83.3114 280° West 349 402 20,000 -242 Level Indianapolis Center
Tue 06:44:00 PM 38.5472 -83.4339 280° West 350 403 19,500 -1,355 Descending Indianapolis Center
Tue 06:45:02 PM 38.5633 -83.5486 280° West 333 383 17,200 -2,323 Descending Indianapolis Center
Tue 06:46:04 PM 38.5786 -83.6625 280° West 326 375 14,700 -2,613 Descending Indianapolis Center
Tue 06:47:06 PM 38.5956 -83.7925 280° West 319 367 11,800 -2,226 Descending Indianapolis Center
Tue 06:48:08 PM 38.6108 -83.9000 280° West 310 357 10,100 -871 Descending Indianapolis Center
Tue 06:49:10 PM 38.6478 -83.9892 298° West 292 336 10,000 -97 Descending Indianapolis Center
Tue 06:50:12 PM 38.6906 -84.0700 304° West 295 339 9,900 -48 Descending Indianapolis Center
Tue 06:51:14 PM 38.7419 -84.1708 303° West 286 329 9,900  Level Indianapolis Center
Tue 06:52:16 PM 38.7842 -84.2531 303° West 277 319 9,900  Level Indianapolis Center
Tue 06:53:18 PM 38.8267 -84.3333 304° West 270 311 9,900 -145 Level Indianapolis Center
Tue 06:54:20 PM 38.8664 -84.4114 303° West 259 298 9,600 -484 Descending Indianapolis Center
Tue 06:55:22 PM 38.9031 -84.4828 303° West 241 277 8,900 -435 Descending Indianapolis Center
Tue 06:56:24 PM 38.9578 -84.5392 321° Northwest 267 307 8,700 -877 Descending Indianapolis Center
Tue 06:57:32 PM 39.0500 -84.5333 North 274 315 7,000 -1,349 Descending Cincinnati TRACON
Tue 06:58:33 PM 39.1333 -84.5333 360° North 244 281 5,800 -1,322 Descending Cincinnati TRACON
Tue 06:59:30 PM 39.1792 -84.5644 332° Northwest 248 285 4,400 -1,059 Descending Indianapolis Center
Tue 07:00:32 PM 39.1786 -84.6450 270° West 238 274 3,700 -984 Descending Indianapolis Center
Tue 07:01:32 PM 39.1333 -84.6667 200° South 178 205 2,400 -1,100 Descending Cincinnati TRACON
Tue 07:02:32 PM 39.1000 -84.6667 180° South 129 148 1,500 -900 Descending Cincinnati TRACON

Login

Don't have an account? Register now (free) for customized features, flight alerts, and more!